Time;durP1;ratioP1;P1;durP2;ratioP2;P2;SDS_P1;SDS_P2;PMS_P1;PMS_P2;Temp;Humidity;BMP_temperature;BMP_pressure;BME280_temperature;BME280_humidity;BME280_pressure;Samples;Min_cycle;Max_cycle;Signal;HPM_P1;HPM_P2
2022/05/26 00:00:28;;;;;;;3.67;1.83;;;12.20;99.90;;;;;;5087340;28;20058;-70
2022/05/26 00:03:00;;;;;;;3.72;1.60;;;12.20;99.90;;;;;;5083812;28;20044;-70
2022/05/26 00:05:33;;;;;;;3.10;1.80;;;12.20;99.90;;;;;;5082002;28;20559;-70
2022/05/26 00:08:06;;;;;;;2.55;1.58;;;12.30;99.90;;;;;;5084576;28;20054;-71
2022/05/26 00:10:38;;;;;;;4.00;1.83;;;12.20;99.90;;;;;;5084317;28;20554;-71
2022/05/26 00:13:11;;;;;;;2.30;1.60;;;12.20;99.90;;;;;;5085359;28;20043;-70
2022/05/26 00:15:43;;;;;;;2.90;1.40;;;12.20;99.90;;;;;;5081906;28;20169;-70
2022/05/26 00:18:16;;;;;;;4.07;1.50;;;12.20;99.90;;;;;;5094184;28;20047;-71
2022/05/26 00:20:49;;;;;;;1.67;1.52;;;12.20;99.90;;;;;;5084852;28;20039;-71
2022/05/26 00:23:22;;;;;;;2.10;1.40;;;12.20;99.90;;;;;;5088869;28;20053;-71
2022/05/26 00:25:54;;;;;;;3.22;1.77;;;12.20;99.90;;;;;;5085040;28;20056;-71
2022/05/26 00:28:27;;;;;;;3.40;1.65;;;12.10;99.90;;;;;;5086157;28;20947;-71
2022/05/26 00:30:59;;;;;;;1.95;1.50;;;12.10;99.90;;;;;;5087353;28;20058;-70
2022/05/26 00:33:32;;;;;;;4.88;1.80;;;12.10;99.90;;;;;;5080723;28;20588;-70
2022/05/26 00:36:11;;;;;;;4.13;1.60;;;12.20;99.90;;;;;;5086143;28;20058;-71
2022/05/26 00:38:43;;;;;;;3.90;1.50;;;12.20;99.90;;;;;;5080775;28;20051;-71
2022/05/26 00:41:16;;;;;;;3.38;1.80;;;12.20;99.90;;;;;;5085292;28;20198;-70
2022/05/26 00:43:48;;;;;;;2.47;1.65;;;12.20;99.90;;;;;;5080726;28;20059;-70
2022/05/26 00:46:35;;;;;;;2.97;1.48;;;12.20;99.90;;;;;;5086948;28;20419;-71
2022/05/26 00:49:39;;;;;;;2.13;1.40;;;12.20;99.90;;;;;;5082277;28;20063;-70
2022/05/26 00:52:32;;;;;;;3.75;2.00;;;12.10;99.90;;;;;;5101613;28;20047;-70
2022/05/26 00:55:23;;;;;;;2.85;1.90;;;12.10;99.90;;;;;;5083576;28;20048;-71
2022/05/26 00:58:04;;;;;;;5.72;2.00;;;12.10;99.90;;;;;;5089570;28;20047;-70
2022/05/26 01:00:38;;;;;;;4.72;1.83;;;12.10;99.90;;;;;;5084698;28;20054;-71
2022/05/26 01:03:20;;;;;;;2.30;1.90;;;12.10;99.90;;;;;;5079344;28;20054;-70
2022/05/26 01:06:00;;;;;;;2.70;1.98;;;12.10;99.90;;;;;;5078948;28;20051;-71
2022/05/26 01:08:49;;;;;;;3.53;2.00;;;12.10;99.90;;;;;;5076763;28;20303;-71
2022/05/26 01:11:24;;;;;;;5.50;2.30;;;12.10;99.90;;;;;;5082110;28;20588;-70
2022/05/26 01:14:20;;;;;;;3.60;1.77;;;12.10;99.90;;;;;;5080059;28;20059;-71
2022/05/26 01:17:20;;;;;;;2.88;2.13;;;12.10;99.90;;;;;;5080920;28;20054;-70
2022/05/26 01:20:12;;;;;;;5.05;2.00;;;12.10;99.90;;;;;;5078167;28;20590;-70
2022/05/26 01:23:11;;;;;;;3.13;1.88;;;12.00;99.90;;;;;;5079297;28;20062;-70
2022/05/26 01:26:02;;;;;;;2.90;2.00;;;12.00;99.90;;;;;;5084804;28;20052;-71
2022/05/26 01:29:08;;;;;;;3.50;2.47;;;11.90;99.90;;;;;;5083143;28;20081;-70
2022/05/26 01:32:03;;;;;;;3.20;1.60;;;11.80;99.90;;;;;;5080926;28;20044;-71
2022/05/26 01:34:51;;;;;;;;;;;11.80;99.90;;;;;;5078849;28;20055;-70
2022/05/26 01:37:48;;;;;;;4.53;2.33;;;11.70;99.90;;;;;;5080499;28;19941;-71
2022/05/26 01:40:41;;;;;;;3.95;1.90;;;11.70;99.90;;;;;;5069877;28;20059;-71
2022/05/26 01:43:16;;;;;;;2.95;2.17;;;11.60;99.90;;;;;;5073663;28;20498;-72
2022/05/26 01:45:49;;;;;;;4.20;2.10;;;11.60;99.90;;;;;;5074643;28;20051;-70
2022/05/26 01:48:48;;;;;;;3.70;2.33;;;11.60;99.90;;;;;;5064836;28;20054;-70
2022/05/26 01:51:32;;;;;;;7.45;2.42;;;11.50;99.90;;;;;;5065424;28;20435;-71
2022/05/26 01:54:07;;;;;;;5.63;2.30;;;11.60;99.90;;;;;;5074119;28;20048;-71
2022/05/26 01:56:53;;;;;;;4.28;2.47;;;11.60;99.90;;;;;;5079748;28;20066;-72
2022/05/26 01:59:34;;;;;;;2.80;2.30;;;11.50;99.90;;;;;;5085269;28;20047;-71
2022/05/26 02:02:13;;;;;;;3.63;2.75;;;11.50;99.90;;;;;;5068934;28;20051;-72
2022/05/26 02:04:54;;;;;;;3.35;2.33;;;11.40;99.90;;;;;;5082058;28;20065;-71
2022/05/26 02:07:37;;;;;;;4.93;2.33;;;11.40;99.90;;;;;;5070146;28;20415;-71
2022/05/26 02:10:15;;;;;;;4.85;3.10;;;11.30;99.90;;;;;;5069475;28;20069;-71
2022/05/26 02:13:01;;;;;;;2.30;2.10;;;11.30;99.90;;;;;;5076852;28;20060;-71
2022/05/26 02:15:44;;;;;;;6.78;2.75;;;11.30;99.90;;;;;;5089861;28;20046;-70
2022/05/26 02:18:22;;;;;;;;;;;11.20;99.90;;;;;;5076933;28;20106;-71
2022/05/26 02:20:59;;;;;;;2.97;2.50;;;11.10;99.90;;;;;;5079564;28;19929;-70
2022/05/26 02:23:40;;;;;;;4.40;2.75;;;11.20;99.90;;;;;;5078653;28;20051;-70
2022/05/26 02:26:14;;;;;;;3.20;2.60;;;11.20;99.90;;;;;;5072880;28;20046;-71
2022/05/26 02:31:40;;;;;;;4.85;3.20;;;11.10;99.90;;;;;;5093057;28;20050;-70
2022/05/26 02:34:14;;;;;;;10.02;2.80;;;11.00;99.90;;;;;;5081957;28;20048;-70
2022/05/26 02:36:50;;;;;;;3.67;2.78;;;11.00;99.90;;;;;;5075006;28;20044;-70
2022/05/26 02:39:23;;;;;;;5.57;2.70;;;11.00;99.90;;;;;;5078292;28;20078;-69
2022/05/26 02:41:57;;;;;;;5.03;2.88;;;11.00;99.90;;;;;;5080262;28;20495;-70
2022/05/26 02:44:31;;;;;;;5.03;3.13;;;10.90;99.90;;;;;;5081443;28;20483;-70
2022/05/26 02:47:37;;;;;;;7.22;3.17;;;10.90;99.90;;;;;;5077696;28;20050;-69
2022/05/26 02:50:35;;;;;;;6.00;2.97;;;10.90;99.90;;;;;;5071268;28;20051;-70
2022/05/26 02:53:40;;;;;;;6.95;3.30;;;10.90;99.90;;;;;;5080611;28;20044;-70
2022/05/26 02:56:23;;;;;;;4.45;2.85;;;10.90;99.90;;;;;;5067454;28;20371;-70
2022/05/26 02:59:17;;;;;;;4.20;3.00;;;10.90;99.90;;;;;;5062874;28;20043;-70
2022/05/26 03:01:57;;;;;;;3.85;2.80;;;10.80;99.90;;;;;;5075072;28;20048;-70
2022/05/26 03:04:39;;;;;;;7.90;3.10;;;10.90;99.90;;;;;;5064512;28;20059;-70
2022/05/26 03:07:18;;;;;;;6.00;3.40;;;10.90;99.90;;;;;;5069310;28;20048;-70
2022/05/26 03:09:52;;;;;;;5.60;3.38;;;10.90;99.90;;;;;;5069448;28;20043;-71
2022/05/26 03:12:33;;;;;;;4.60;3.90;;;10.90;99.90;;;;;;5067148;28;20055;-70
2022/05/26 03:15:07;;;;;;;5.10;3.80;;;10.90;99.90;;;;;;5075200;28;20052;-71
2022/05/26 03:17:40;;;;;;;4.40;3.47;;;10.90;99.90;;;;;;5091214;28;20467;-69
2022/05/26 03:20:12;;;;;;;4.65;3.17;;;10.80;99.90;;;;;;5095216;28;20047;-71
2022/05/26 03:22:45;;;;;;;6.28;3.78;;;10.90;99.90;;;;;;5097333;28;20059;-71
2022/05/26 03:25:18;;;;;;;3.65;3.17;;;10.90;99.90;;;;;;5098377;28;20047;-70
2022/05/26 03:27:50;;;;;;;3.30;2.80;;;10.90;99.90;;;;;;5096583;28;20396;-70
2022/05/26 03:30:23;;;;;;;7.68;3.58;;;10.90;99.90;;;;;;5095476;28;20702;-70
2022/05/26 03:32:55;;;;;;;3.17;2.88;;;10.90;99.90;;;;;;5094651;28;20435;-70
2022/05/26 03:41:10;;;;;;;6.25;3.25;;;10.90;99.90;;;;;;5089282;28;20054;-70
2022/05/26 03:43:49;;;;;;;6.07;3.10;;;10.90;99.90;;;;;;5096615;28;20047;-70
2022/05/26 03:46:24;;;;;;;3.95;2.60;;;10.90;99.90;;;;;;5106489;28;20066;-71
2022/05/26 03:48:57;;;;;;;5.78;3.53;;;10.90;99.90;;;;;;5091076;28;20142;-69
2022/05/26 03:51:29;;;;;;;3.60;2.92;;;11.00;99.90;;;;;;5094775;28;20051;-70
2022/05/26 03:54:02;;;;;;;5.50;2.92;;;11.00;99.90;;;;;;5097052;28;20066;-70
2022/05/26 03:56:34;;;;;;;3.67;2.95;;;11.00;99.90;;;;;;5085029;28;20050;-69
2022/05/26 03:59:07;;;;;;;4.60;3.17;;;11.10;99.90;;;;;;5066298;28;20058;-70
2022/05/26 04:01:39;;;;;;;7.72;2.92;;;11.10;99.90;;;;;;5089204;28;20591;-70
2022/05/26 04:04:13;;;;;;;3.22;2.70;;;11.20;99.90;;;;;;5091464;28;20520;-70
2022/05/26 04:06:46;;;;;;;3.20;2.65;;;11.20;99.90;;;;;;5096009;28;20063;-70
2022/05/26 04:09:18;;;;;;;13.63;4.15;;;11.30;99.90;;;;;;5095541;28;20044;-70
2022/05/26 04:11:51;;;;;;;3.38;2.58;;;11.30;99.90;;;;;;5096414;28;20082;-70
2022/05/26 04:14:23;;;;;;;5.97;2.78;;;11.30;99.90;;;;;;5092413;28;20055;-71
2022/05/26 04:16:58;;;;;;;4.25;2.70;;;11.30;99.90;;;;;;5105067;28;20067;-70
2022/05/26 04:19:30;;;;;;;7.03;2.72;;;11.40;99.90;;;;;;5096857;28;20054;-70
2022/05/26 04:22:18;;;;;;;5.25;3.38;;;11.50;99.90;;;;;;5093211;28;20113;-70
2022/05/26 04:24:54;;;;;;;6.43;3.30;;;11.60;99.90;;;;;;5094377;28;20415;-70
2022/05/26 04:27:30;;;;;;;7.18;3.50;;;11.70;99.90;;;;;;5090349;28;20078;-70
2022/05/26 04:30:07;;;;;;;6.15;3.70;;;11.80;99.90;;;;;;5089842;28;20484;-70
2022/05/26 04:32:40;;;;;;;5.72;3.35;;;11.80;99.90;;;;;;5090372;28;20059;-70
2022/05/26 04:35:13;;;;;;;4.72;3.90;;;11.90;99.90;;;;;;5086797;28;20067;-70
2022/05/26 04:37:45;;;;;;;3.97;3.58;;;12.00;99.90;;;;;;5090801;28;20059;-70
2022/05/26 04:40:18;;;;;;;6.53;3.17;;;12.00;99.90;;;;;;5091980;28;20043;-70
2022/05/26 04:42:51;;;;;;;5.47;3.47;;;12.10;99.90;;;;;;5087460;28;20059;-71
2022/05/26 04:45:25;;;;;;;5.82;3.67;;;12.20;99.90;;;;;;5090849;28;20050;-70
2022/05/26 04:47:57;;;;;;;;;;;12.20;99.90;;;;;;5093482;28;20055;-70
2022/05/26 04:50:30;;;;;;;4.30;3.30;;;12.30;99.90;;;;;;5087609;28;19930;-70
2022/05/26 04:53:02;;;;;;;5.60;3.25;;;12.30;99.90;;;;;;5088467;28;21425;-70
2022/05/26 04:55:35;;;;;;;5.53;2.97;;;12.40;99.90;;;;;;5092903;28;20051;-70
2022/05/26 04:58:08;;;;;;;3.15;2.65;;;12.50;99.90;;;;;;5104738;28;20066;-69
2022/05/26 05:00:40;;;;;;;3.30;2.80;;;12.60;99.90;;;;;;5078790;28;20058;-69
2022/05/26 05:03:12;;;;;;;4.35;3.13;;;12.80;99.90;;;;;;5078494;28;20052;-70
2022/05/26 05:05:45;;;;;;;3.35;2.50;;;12.90;99.90;;;;;;5071282;28;20052;-69
2022/05/26 05:08:17;;;;;;;4.25;2.67;;;12.90;99.90;;;;;;5065605;28;20055;-69
2022/05/26 05:10:50;;;;;;;3.45;2.10;;;13.00;99.90;;;;;;5064876;28;20051;-70
2022/05/26 05:13:23;;;;;;;3.90;2.70;;;13.00;99.90;;;;;;5077823;28;20070;-69
2022/05/26 05:16:18;;;;;;;9.57;2.88;;;13.10;99.90;;;;;;5080727;28;20078;-70
2022/05/26 05:18:51;;;;;;;4.45;2.50;;;13.20;99.90;;;;;;5100881;28;20055;-71
2022/05/26 05:21:46;;;;;;;6.10;2.80;;;13.30;99.90;;;;;;5094041;28;20047;-71
2022/05/26 05:24:28;;;;;;;;;;;13.30;99.90;;;;;;5091547;28;20435;-70
2022/05/26 05:27:15;;;;;;;3.45;2.63;;;13.40;99.90;;;;;;5092743;28;19937;-69
2022/05/26 05:29:50;;;;;;;3.08;2.50;;;13.40;99.90;;;;;;5087754;28;20047;-70
2022/05/26 05:32:29;;;;;;;5.13;2.08;;;13.40;99.90;;;;;;5092813;28;20059;-70
2022/05/26 05:35:08;;;;;;;4.60;2.40;;;13.40;99.90;;;;;;5100550;28;20048;-69
2022/05/26 05:37:42;;;;;;;3.10;2.20;;;13.50;99.90;;;;;;5112177;28;20053;-70
2022/05/26 05:40:14;;;;;;;3.72;2.47;;;13.60;99.90;;;;;;5086630;28;20054;-70
2022/05/26 05:42:48;;;;;;;2.85;1.92;;;13.60;99.90;;;;;;5089625;28;20523;-70
2022/05/26 05:45:20;;;;;;;10.45;2.50;;;13.70;99.90;;;;;;5090134;28;20055;-70
2022/05/26 05:47:53;;;;;;;2.60;2.30;;;13.70;99.90;;;;;;5091265;28;20048;-69
2022/05/26 05:50:26;;;;;;;6.03;2.60;;;13.80;99.90;;;;;;5105021;28;20051;-70
2022/05/26 05:52:58;;;;;;;4.53;2.20;;;13.90;99.90;;;;;;5096748;28;20039;-70
2022/05/26 05:55:32;;;;;;;3.70;2.50;;;13.90;99.90;;;;;;5092383;28;20384;-68
2022/05/26 05:58:08;;;;;;;5.32;2.33;;;14.00;99.90;;;;;;5085008;28;20058;-70
2022/05/26 06:00:41;;;;;;;7.43;2.58;;;14.00;99.90;;;;;;5088354;28;20619;-70
2022/05/26 06:03:14;;;;;;;3.20;2.00;;;14.10;99.90;;;;;;5093058;28;20055;-70
2022/05/26 06:05:47;;;;;;;5.30;2.10;;;14.10;99.90;;;;;;5091260;28;20040;-69
2022/05/26 06:08:19;;;;;;;5.13;2.15;;;14.20;99.90;;;;;;5091344;28;20939;-70
2022/05/26 06:10:52;;;;;;;2.33;2.13;;;14.40;99.90;;;;;;5077626;28;20054;-70
2022/05/26 06:13:25;;;;;;;3.58;2.45;;;14.40;99.90;;;;;;5089594;28;20059;-70
2022/05/26 06:15:57;;;;;;;3.15;2.30;;;14.50;99.90;;;;;;5082244;28;20036;-70
2022/05/26 06:18:31;;;;;;;3.13;2.20;;;14.60;99.90;;;;;;5087899;28;20074;-70
2022/05/26 06:21:05;;;;;;;;;;;14.70;99.90;;;;;;5086538;28;20060;-70
2022/05/26 06:23:37;;;;;;;3.15;2.58;;;14.80;99.90;;;;;;5091364;28;19934;-70
2022/05/26 06:26:10;;;;;;;3.78;2.25;;;14.80;99.90;;;;;;5086888;28;20416;-69
2022/05/26 06:31:34;;;;;;;3.80;2.40;;;14.90;99.90;;;;;;5098119;28;20043;-70
2022/05/26 06:37:14;;;;;;;2.88;2.30;;;15.00;99.90;;;;;;5088662;28;20559;-69
2022/05/26 06:39:47;;;;;;;3.10;2.10;;;15.10;99.90;;;;;;5056821;28;20051;-69
2022/05/26 06:42:20;;;;;;;3.35;2.20;;;15.20;99.90;;;;;;5056701;28;20047;-70
2022/05/26 06:44:52;;;;;;;7.25;2.50;;;15.20;99.90;;;;;;5067549;28;20395;-70
2022/05/26 06:47:26;;;;;;;2.97;2.00;;;15.20;99.90;;;;;;5051537;28;20055;-71
2022/05/26 06:49:59;;;;;;;3.63;2.22;;;15.30;99.90;;;;;;5074496;28;20411;-70
2022/05/26 06:52:32;;;;;;;3.15;1.90;;;15.40;99.90;;;;;;5057443;28;20048;-71
2022/05/26 06:55:06;;;;;;;6.78;1.90;;;15.40;99.90;;;;;;5064311;28;20066;-70
2022/05/26 06:57:39;;;;;;;6.05;2.30;;;15.40;99.90;;;;;;5074190;28;20699;-71
2022/05/26 07:00:12;;;;;;;3.50;2.30;;;15.50;99.90;;;;;;5059774;28;20059;-70
2022/05/26 07:02:45;;;;;;;6.38;1.98;;;15.50;99.20;;;;;;5049181;28;20074;-70
2022/05/26 07:05:18;;;;;;;2.97;2.03;;;15.50;99.90;;;;;;5060993;28;20517;-70
2022/05/26 07:07:51;;;;;;;3.80;1.90;;;15.60;99.90;;;;;;5046594;28;20063;-70
2022/05/26 07:10:25;;;;;;;2.88;1.70;;;15.80;99.90;;;;;;5059621;28;20048;-70
2022/05/26 07:12:57;;;;;;;;;;;15.90;97.50;;;;;;5064155;28;20070;-70
2022/05/26 07:15:30;;;;;;;7.97;1.83;;;16.00;97.30;;;;;;5055666;28;19927;-70
2022/05/26 07:18:05;;;;;;;3.42;1.92;;;16.10;97.40;;;;;;5059209;28;20047;-71
2022/05/26 07:20:38;;;;;;;6.30;1.77;;;16.40;96.40;;;;;;5070644;28;21708;-70
2022/05/26 07:23:11;;;;;;;4.05;1.98;;;16.50;95.60;;;;;;5081720;28;20519;-70
2022/05/26 07:25:44;;;;;;;3.38;1.92;;;16.60;93.80;;;;;;5077149;28;20890;-71
2022/05/26 07:28:16;;;;;;;4.90;2.17;;;16.60;93.70;;;;;;5085209;28;20048;-70
2022/05/26 07:30:49;;;;;;;3.85;1.70;;;16.60;92.10;;;;;;5084919;28;20411;-70
2022/05/26 07:33:22;;;;;;;2.40;1.45;;;16.70;92.90;;;;;;5082504;28;20059;-70
2022/05/26 07:35:54;;;;;;;2.30;1.30;;;16.90;93.60;;;;;;5089988;28;20285;-70
2022/05/26 07:41:28;;;;;;;5.88;1.80;;;17.30;90.80;;;;;;5084420;28;20047;-70
2022/05/26 07:44:01;;;;;;;2.53;1.67;;;17.40;89.40;;;;;;5084590;28;20055;-70
2022/05/26 07:46:34;;;;;;;3.70;1.63;;;17.50;88.50;;;;;;5087679;28;20043;-70
2022/05/26 07:49:08;;;;;;;2.78;1.48;;;17.50;85.80;;;;;;5083859;28;21372;-70
2022/05/26 07:51:40;;;;;;;;;;;17.60;86.40;;;;;;5087661;28;20051;-70
2022/05/26 07:54:13;;;;;;;5.32;1.33;;;17.50;83.50;;;;;;5098368;28;19934;-70
2022/05/26 07:56:45;;;;;;;3.88;1.20;;;17.60;82.50;;;;;;5097452;28;20059;-71
2022/05/26 07:59:18;;;;;;;3.55;1.30;;;17.70;82.80;;;;;;5091083;28;20059;-70
2022/05/26 08:01:50;;;;;;;5.10;1.30;;;17.70;81.10;;;;;;5096751;28;20066;-71
2022/05/26 08:04:23;;;;;;;4.37;1.10;;;17.80;80.40;;;;;;5101392;28;20331;-70
2022/05/26 08:06:56;;;;;;;2.33;1.55;;;17.90;79.70;;;;;;5096579;28;20310;-70
2022/05/26 08:09:28;;;;;;;4.13;1.50;;;17.90;79.10;;;;;;5082985;28;20062;-70
2022/05/26 08:12:01;;;;;;;5.82;1.60;;;18.00;80.30;;;;;;5078650;28;20046;-69
2022/05/26 08:14:34;;;;;;;5.45;1.85;;;18.10;80.50;;;;;;5085824;28;20054;-70
2022/05/26 08:17:08;;;;;;;5.18;1.60;;;18.20;80.20;;;;;;5071909;28;21191;-69
2022/05/26 08:19:41;;;;;;;1.98;1.35;;;18.40;80.40;;;;;;5092939;28;20055;-68
2022/05/26 08:22:14;;;;;;;2.80;1.50;;;18.50;79.10;;;;;;5091557;28;21243;-70
2022/05/26 08:24:53;;;;;;;4.57;1.40;;;18.60;79.60;;;;;;5088658;28;20043;-71
2022/05/26 08:27:26;;;;;;;3.47;1.60;;;18.70;80.30;;;;;;5082742;28;20043;-70
2022/05/26 08:29:59;;;;;;;3.50;1.53;;;18.70;78.50;;;;;;5085144;28;20055;-69
2022/05/26 08:32:32;;;;;;;2.67;1.40;;;18.70;77.90;;;;;;5082771;28;20070;-70
2022/05/26 08:35:07;;;;;;;;;;;18.90;79.50;;;;;;5083193;28;20683;-71
2022/05/26 08:37:40;;;;;;;2.80;1.60;;;19.10;78.20;;;;;;5082755;28;19926;-70
2022/05/26 08:40:37;;;;;;;6.72;1.40;;;19.20;79.10;;;;;;5100632;28;20051;-70
2022/05/26 08:43:18;;;;;;;4.10;1.40;;;19.40;78.70;;;;;;5092213;28;20122;-70
2022/05/26 08:45:54;;;;;;;3.80;1.40;;;19.40;74.60;;;;;;5087410;28;20805;-70
2022/05/26 08:48:52;;;;;;;2.53;1.20;;;19.40;75.60;;;;;;5085569;28;20052;-70
2022/05/26 08:51:40;;;;;;;1.98;1.42;;;19.40;75.10;;;;;;5088257;28;20062;-69
2022/05/26 08:54:23;;;;;;;3.08;0.95;;;19.30;74.80;;;;;;5082533;28;20056;-70
2022/05/26 08:56:58;;;;;;;3.07;1.00;;;19.50;72.10;;;;;;5086671;28;20048;-70
2022/05/26 08:59:41;;;;;;;3.83;1.30;;;19.60;70.70;;;;;;5091052;28;20539;-69
2022/05/26 09:02:22;;;;;;;4.70;1.17;;;19.60;70.10;;;;;;5085583;28;20818;-70
2022/05/26 09:04:59;;;;;;;4.55;1.30;;;19.60;70.10;;;;;;5081710;28;20431;-69
2022/05/26 09:13:48;;;;;;;1.83;1.30;;;18.90;73.30;;;;;;5074828;28;20059;-70
2022/05/26 09:16:21;;;;;;;2.20;1.45;;;18.90;72.80;;;;;;5081183;28;20350;-69
2022/05/26 09:19:09;;;;;;;;;;;18.80;73.70;;;;;;5083681;28;20051;-70
2022/05/26 09:21:43;;;;;;;1.63;1.10;;;18.90;72.60;;;;;;5085512;28;20725;-71
2022/05/26 09:24:15;;;;;;;;;;;18.80;72.20;;;;;;5082959;28;20426;-70
2022/05/26 09:26:52;;;;;;;2.35;1.10;;;18.80;69.90;;;;;;5080916;28;19930;-71
2022/05/26 09:29:27;;;;;;;3.97;1.38;;;18.80;71.10;;;;;;5076710;28;20047;-70
2022/05/26 09:32:02;;;;;;;4.40;1.33;;;19.10;71.60;;;;;;5084509;28;20050;-69
2022/05/26 09:35:05;;;;;;;3.67;1.52;;;19.20;69.70;;;;;;5088530;28;20062;-70
2022/05/26 09:37:44;;;;;;;3.28;1.05;;;19.20;69.60;;;;;;5093209;28;20059;-70
2022/05/26 09:40:28;;;;;;;2.92;1.15;;;19.40;69.70;;;;;;5092844;28;20972;-69
2022/05/26 09:43:08;;;;;;;2.72;1.00;;;19.60;67.90;;;;;;5094507;28;20525;-70
2022/05/26 09:45:47;;;;;;;1.42;0.95;;;19.80;68.50;;;;;;5091570;28;21003;-69
2022/05/26 09:48:40;;;;;;;2.58;1.10;;;19.80;66.80;;;;;;5089432;28;20051;-70
2022/05/26 09:51:24;;;;;;;2.13;1.10;;;19.90;67.70;;;;;;5090256;28;20043;-69
2022/05/26 09:53:57;;;;;;;3.88;1.15;;;20.00;65.60;;;;;;5087030;28;20055;-70
2022/05/26 09:56:40;;;;;;;2.47;1.05;;;20.00;67.80;;;;;;5089200;28;20060;-70
2022/05/26 09:59:27;;;;;;;4.13;1.13;;;19.90;66.00;;;;;;5086949;28;20499;-70
2022/05/26 10:02:08;;;;;;;2.30;1.10;;;19.90;66.30;;;;;;5086127;28;20046;-70
2022/05/26 10:04:57;;;;;;;4.97;1.35;;;19.80;68.60;;;;;;5084239;28;20050;-69
2022/05/26 10:07:39;;;;;;;5.93;1.20;;;19.90;67.40;;;;;;5078840;28;20051;-71
2022/05/26 10:10:29;;;;;;;7.47;1.42;;;20.20;68.80;;;;;;5083340;28;20043;-70
2022/05/26 10:13:21;;;;;;;1.58;0.98;;;20.40;67.10;;;;;;5085377;28;20706;-70
2022/05/26 10:16:09;;;;;;;6.55;1.10;;;20.20;65.60;;;;;;5083396;28;20055;-70
2022/05/26 10:19:06;;;;;;;1.55;1.20;;;20.20;68.10;;;;;;5086196;28;20689;-70
2022/05/26 10:22:15;;;;;;;2.47;0.95;;;20.10;68.10;;;;;;5089248;28;20427;-70
2022/05/26 10:24:55;;;;;;;4.57;1.30;;;20.00;68.60;;;;;;5087889;28;20407;-71
2022/05/26 10:27:57;;;;;;;1.75;1.20;;;20.50;69.80;;;;;;5085971;28;20052;-71
2022/05/26 10:30:48;;;;;;;2.33;1.20;;;21.20;68.10;;;;;;5084585;28;20047;-71
2022/05/26 10:33:39;;;;;;;4.57;1.13;;;21.40;64.20;;;;;;5083523;28;20047;-71
2022/05/26 10:36:12;;;;;;;2.90;1.00;;;21.70;64.60;;;;;;5089056;28;20054;-71
2022/05/26 10:39:26;;;;;;;3.88;1.15;;;22.00;63.50;;;;;;5089973;28;20047;-71
2022/05/26 10:42:05;;;;;;;3.90;1.23;;;22.00;60.30;;;;;;5095280;28;20048;-71
2022/05/26 10:44:45;;;;;;;3.25;1.00;;;21.90;64.90;;;;;;5092655;28;20044;-70
2022/05/26 10:47:30;;;;;;;4.10;1.10;;;22.10;62.50;;;;;;5095323;28;20059;-71
2022/05/26 10:50:16;;;;;;;4.32;1.20;;;22.10;62.50;;;;;;5090018;28;20052;-70
2022/05/26 10:53:20;;;;;;;3.35;0.95;;;21.90;60.00;;;;;;5083413;28;20048;-71
2022/05/26 10:55:59;;;;;;;2.65;0.90;;;21.70;61.70;;;;;;5089149;28;20098;-71
2022/05/26 10:58:38;;;;;;;2.70;0.98;;;21.90;62.80;;;;;;5088407;28;20614;-71
2022/05/26 11:01:36;;;;;;;2.60;1.20;;;22.30;62.80;;;;;;5087683;28;20051;-71
2022/05/26 11:04:59;;;;;;;2.65;1.05;;;22.40;61.40;;;;;;5094273;28;20051;-70
2022/05/26 11:07:40;;;;;;;2.55;1.10;;;22.60;59.50;;;;;;5060817;28;20587;-70
2022/05/26 11:10:37;;;;;;;2.60;0.95;;;22.70;58.40;;;;;;5093407;28;20047;-71
2022/05/26 11:13:49;;;;;;;2.33;1.00;;;22.80;59.60;;;;;;5098685;28;20043;-71
2022/05/26 11:19:39;;;;;;;1.52;0.93;;;21.90;60.00;;;;;;5093376;28;20043;-71
2022/05/26 11:22:14;;;;;;;2.45;1.00;;;21.70;60.00;;;;;;5092623;28;21242;-70
2022/05/26 11:24:52;;;;;;;2.83;1.30;;;22.10;63.40;;;;;;5091769;28;20051;-71
2022/05/26 11:27:54;;;;;;;5.90;0.90;;;22.40;61.10;;;;;;5088997;28;20079;-71
2022/05/26 11:37:23;;;;;;;4.03;1.02;;;23.00;57.80;;;;;;5085016;28;20048;-71
2022/05/26 11:40:03;;;;;;;1.45;0.85;;;23.10;58.00;;;;;;5092818;28;20046;-71
2022/05/26 11:42:51;;;;;;;3.25;1.00;;;23.10;59.40;;;;;;5094208;28;20047;-71
2022/05/26 11:45:28;;;;;;;5.03;1.20;;;22.80;57.40;;;;;;5093462;28;20052;-71
2022/05/26 11:48:29;;;;;;;3.88;0.98;;;23.00;57.20;;;;;;5091974;28;20489;-71
2022/05/26 11:51:26;;;;;;;5.05;1.20;;;23.50;56.20;;;;;;5092871;28;20074;-71
2022/05/26 11:53:59;;;;;;;2.20;1.05;;;23.50;56.90;;;;;;5096336;28;20064;-72
2022/05/26 11:56:32;;;;;;;3.58;1.10;;;23.80;56.20;;;;;;5091092;28;20397;-71
2022/05/26 11:59:32;;;;;;;1.30;0.80;;;23.70;55.70;;;;;;5098769;28;20058;-71
2022/05/26 12:02:07;;;;;;;4.75;1.45;;;23.60;56.50;;;;;;5092850;28;20570;-70
2022/05/26 12:04:49;;;;;;;1.98;0.88;;;24.20;53.90;;;;;;5077094;28;20048;-72
2022/05/26 12:07:22;;;;;;;2.90;0.85;;;24.30;56.30;;;;;;5090114;28;20056;-70
2022/05/26 12:09:57;;;;;;;12.30;1.27;;;25.00;54.50;;;;;;5085414;28;20436;-70
2022/05/26 12:12:35;;;;;;;1.55;1.00;;;24.80;52.40;;;;;;5092710;28;20052;-70
2022/05/26 12:15:17;;;;;;;2.90;0.90;;;25.00;51.90;;;;;;5093329;28;20067;-71
2022/05/26 12:17:51;;;;;;;2.83;0.88;;;25.40;54.80;;;;;;5078921;28;20063;-72
2022/05/26 12:20:24;;;;;;;;;;;25.70;53.60;;;;;;5089536;28;20597;-70
2022/05/26 12:22:57;;;;;;;2.38;1.13;;;25.40;51.20;;;;;;5084636;28;19931;-69
2022/05/26 12:25:35;;;;;;;4.72;1.15;;;25.30;52.00;;;;;;5089168;28;20078;-70
2022/05/26 12:28:10;;;;;;;2.20;1.00;;;24.70;53.20;;;;;;5090545;28;21168;-70
2022/05/26 12:30:48;;;;;;;2.55;0.90;;;24.70;53.30;;;;;;5088434;28;20048;-70
2022/05/26 12:33:40;;;;;;;2.63;1.08;;;24.90;53.00;;;;;;5080050;28;20192;-70
2022/05/26 12:36:31;;;;;;;1.25;1.00;;;24.60;50.90;;;;;;5073668;28;21668;-70
2022/05/26 12:39:44;;;;;;;0.95;0.75;;;24.50;51.40;;;;;;5063023;28;20794;-70
2022/05/26 12:42:49;;;;;;;1.13;0.88;;;25.10;52.10;;;;;;5071321;28;20055;-71
2022/05/26 12:45:29;;;;;;;2.15;0.80;;;25.50;49.90;;;;;;5076201;28;20051;-70
2022/05/26 12:48:35;;;;;;;2.20;1.00;;;25.40;50.80;;;;;;5077804;28;20047;-70
2022/05/26 12:51:11;;;;;;;1.60;1.00;;;25.30;52.30;;;;;;5084690;28;20063;-70
2022/05/26 12:53:57;;;;;;;1.60;0.90;;;25.00;52.40;;;;;;5080237;28;20058;-70
2022/05/26 12:57:02;;;;;;;4.82;0.75;;;24.50;51.90;;;;;;5070151;28;20051;-70
2022/05/26 12:59:35;;;;;;;3.30;1.20;;;24.60;52.40;;;;;;5064307;28;20922;-70
2022/05/26 13:02:13;;;;;;;1.75;0.90;;;24.40;52.80;;;;;;5063633;28;20063;-69
2022/05/26 13:04:47;;;;;;;2.30;0.90;;;24.00;51.00;;;;;;5067920;28;20058;-71
2022/05/26 13:07:27;;;;;;;2.92;1.05;;;23.90;52.80;;;;;;5098889;28;20502;-71
2022/05/26 13:09:59;;;;;;;1.08;0.70;;;24.20;55.00;;;;;;5076926;28;20055;-70
2022/05/26 13:12:32;;;;;;;2.10;0.73;;;24.40;53.00;;;;;;5085253;28;20055;-70
2022/05/26 13:15:04;;;;;;;1.55;0.80;;;24.50;53.40;;;;;;5088619;28;20071;-70
2022/05/26 13:17:47;;;;;;;1.67;0.80;;;24.60;52.70;;;;;;5088938;28;20055;-70
2022/05/26 13:20:34;;;;;;;3.53;0.90;;;24.80;51.70;;;;;;5093719;28;20765;-70
2022/05/26 13:23:30;;;;;;;1.88;1.10;;;24.40;50.70;;;;;;5089865;28;20059;-70
2022/05/26 13:26:03;;;;;;;1.50;0.77;;;24.60;53.70;;;;;;5080500;28;20058;-70
2022/05/26 13:28:39;;;;;;;2.08;0.80;;;24.90;51.40;;;;;;5090801;28;20047;-70
2022/05/26 13:34:18;;;;;;;5.47;0.90;;;24.90;51.50;;;;;;5156487;22;20048;-72
2022/05/26 13:36:51;;;;;;;3.08;1.10;;;25.40;51.70;;;;;;5211470;28;20060;-73
2022/05/26 13:39:25;;;;;;;2.05;0.85;;;25.90;50.80;;;;;;5191167;28;20115;-72
2022/05/26 13:41:58;;;;;;;2.42;0.95;;;25.50;50.40;;;;;;5193537;28;20222;-71
2022/05/26 13:44:43;;;;;;;2.13;1.00;;;25.20;51.10;;;;;;5197107;28;20045;-69
2022/05/26 13:47:17;;;;;;;7.18;1.00;;;24.90;51.00;;;;;;5196574;28;20307;-69
2022/05/26 13:50:00;;;;;;;1.45;1.00;;;25.20;52.90;;;;;;5190342;28;20065;-68
2022/05/26 13:52:35;;;;;;;2.90;0.90;;;25.20;50.40;;;;;;5194530;28;20041;-73
2022/05/26 13:55:21;;;;;;;1.00;0.90;;;25.40;50.60;;;;;;5194027;28;20072;-71
2022/05/26 13:57:58;;;;;;;5.97;1.02;;;25.50;48.60;;;;;;5198816;28;20053;-69
2022/05/26 14:00:35;;;;;;;0.90;0.75;;;25.50;51.20;;;;;;5189628;28;20052;-74
2022/05/26 14:03:18;;;;;;;3.13;1.08;;;25.80;51.10;;;;;;5189404;28;20061;-72
2022/05/26 14:06:00;;;;;;;;;;;25.70;49.30;;;;;;5196930;28;20060;-73
2022/05/26 14:08:46;;;;;;;5.57;1.17;;;25.30;52.20;;;;;;5194856;28;19936;-73
2022/05/26 14:11:39;;;;;;;2.30;1.00;;;25.00;52.20;;;;;;5193529;28;20073;-74
2022/05/26 14:14:38;;;;;;;3.00;0.90;;;25.40;53.30;;;;;;5195266;28;20501;-74
2022/05/26 14:17:24;;;;;;;1.85;1.30;;;25.60;52.60;;;;;;5181377;28;20071;-71
2022/05/26 14:19:59;;;;;;;2.55;0.90;;;25.70;53.30;;;;;;5184871;28;20072;-71
2022/05/26 14:22:34;;;;;;;3.80;1.33;;;25.80;51.90;;;;;;5189235;28;20045;-72
2022/05/26 14:25:15;;;;;;;4.05;0.98;;;25.80;50.70;;;;;;5189750;28;20076;-73
2022/05/26 14:28:01;;;;;;;5.97;1.38;;;25.60;52.10;;;;;;5190070;28;20608;-73
2022/05/26 14:30:39;;;;;;;3.35;1.27;;;26.10;51.60;;;;;;5190435;28;20045;-75